CheckWX is a tool to help pilots better visualize weather data.  It is not intended as a substitute for an official pre-flight weather briefing.

18:43:17 UTC

KMNM METAR
Menominee-Marinette Twin County Airport
Menominee, Michigan, USA
Current

47 mins ago

KMNM 171756Z AUTO 07013G19KT 9SM -SN OVC027 M06/M11 A3008 RMK AO2 SLP208 P0000 60000 T10561106 11056 21083 58001 FZRANO $
Observed
Feb-17 @ 17:56 UTC
Wind
  • 070° at 13 KTS
  • Gusting to 19 KTS
Visibility
9 SM
Flight Rules
MVFR
Conditions
Light Snow
Cloud Levels
  • Overcast at 2,700' AGL
Temperature
-6°C / 21°F
Dewpoint
-11°C / 12°F
Humidity
68%
Altimeter
30.08" Hg
Pressure
1020.8 hPa
Current Rain
0.01"
Previous

2 hours ago

KMNM 171656Z AUTO 06014KT 9SM -SN OVC025 M06/M11 A3009 RMK AO2 SLP213 P0000 T10611106 FZRANO $
Observed
Feb-17 @ 16:56 UTC
Wind
  • 060° at 14 KTS
Visibility
9 SM
Flight Rules
MVFR
Conditions
Light Snow
Cloud Levels
  • Overcast at 2,500' AGL
Temperature
-6°C / 21°F
Dewpoint
-11°C / 12°F
Humidity
68%
Altimeter
30.09" Hg
Pressure
1021.3 hPa
Current Rain
0.01"
Previous

3 hours ago

KMNM 171556Z AUTO 06015KT 9SM -SN OVC025 M06/M11 A3009 RMK AO2 SLP213 P0000 T10611106 FZRANO $
Observed
Feb-17 @ 15:56 UTC
Wind
  • 060° at 15 KTS
Visibility
9 SM
Flight Rules
MVFR
Conditions
Light Snow
Cloud Levels
  • Overcast at 2,500' AGL
Temperature
-6°C / 21°F
Dewpoint
-11°C / 12°F
Humidity
68%
Altimeter
30.09" Hg
Pressure
1021.3 hPa
Current Rain
0.01"